createdAt,value
2023-05-05T00:02:37.140Z,98802.48
2023-05-05T00:07:01.113Z,98802.86
2023-05-05T00:11:35.940Z,98800.77
2023-05-05T00:16:07.536Z,98798.00
2023-05-05T00:20:40.883Z,98794.75
2023-05-05T00:25:12.566Z,98785.66
2023-05-05T00:29:41.161Z,98779.44
2023-05-05T00:34:07.040Z,98780.33
2023-05-05T00:38:36.335Z,98776.92
2023-05-05T00:43:00.301Z,98774.60
2023-05-05T00:47:29.952Z,98777.72
2023-05-05T00:51:55.913Z,98772.64
2023-05-05T00:56:23.838Z,98770.49
2023-05-05T01:00:56.568Z,98764.73
2023-05-05T01:05:26.129Z,98760.33
2023-05-05T01:10:18.853Z,98758.30
2023-05-05T01:14:53.492Z,98759.42
2023-05-05T01:19:31.931Z,98756.46
2023-05-05T01:24:04.665Z,98756.02
2023-05-05T01:28:34.221Z,98751.46
2023-05-05T01:32:58.191Z,98753.95
2023-05-05T01:37:23.363Z,98754.95
2023-05-05T01:41:53.148Z,98757.73
2023-05-05T01:46:23.114Z,98751.87
2023-05-05T01:50:54.073Z,98749.42
2023-05-05T01:55:21.050Z,98747.64
2023-05-05T01:59:51.608Z,98753.45
2023-05-05T02:04:15.534Z,98743.73
2023-05-05T02:13:46.076Z,98743.34
2023-05-05T02:18:12.861Z,98741.52
2023-05-05T02:22:37.755Z,98733.44
2023-05-05T02:27:03.781Z,98733.23
2023-05-05T02:31:36.005Z,98729.83
2023-05-05T02:36:06.595Z,98729.45
2023-05-05T02:40:41.245Z,98729.70
2023-05-05T02:45:05.333Z,98735.18
2023-05-05T02:49:31.411Z,98734.55
2023-05-05T02:54:05.944Z,98734.40
2023-05-05T02:58:47.918Z,98735.04
2023-05-05T03:03:17.682Z,98739.30
2023-05-05T03:07:43.640Z,98734.83
2023-05-05T03:12:08.647Z,98736.27
2023-05-05T03:16:34.679Z,98738.84
2023-05-05T03:20:58.676Z,98734.06
2023-05-05T03:25:22.635Z,98733.39
2023-05-05T03:29:46.715Z,98728.14
2023-05-05T03:34:15.939Z,98728.68
2023-05-05T03:38:41.865Z,98727.92
2023-05-05T03:43:11.361Z,98732.20
2023-05-05T03:47:35.357Z,98728.21
2023-05-05T03:52:03.024Z,98732.00
2023-05-05T03:56:26.947Z,98736.25
2023-05-05T04:00:57.518Z,98738.41
2023-05-05T04:05:30.400Z,98736.94
2023-05-05T04:09:54.280Z,98737.63
2023-05-05T04:14:19.358Z,98739.81
2023-05-05T04:18:44.386Z,98739.73
2023-05-05T04:23:16.286Z,98736.83
2023-05-05T04:27:41.222Z,98737.13
2023-05-05T04:32:19.009Z,98739.84
2023-05-05T04:36:51.573Z,98735.97
2023-05-05T04:41:17.488Z,98739.17
2023-05-05T04:45:42.321Z,98737.55
2023-05-05T04:50:29.515Z,98738.64
2023-05-05T04:54:54.820Z,98741.02
2023-05-05T04:59:25.465Z,98748.46
2023-05-05T05:04:03.247Z,98751.74
2023-05-05T05:08:30.470Z,98755.77
2023-05-05T05:13:04.098Z,98753.48
2023-05-05T05:17:31.428Z,98754.56
2023-05-05T05:22:02.223Z,98754.46
2023-05-05T05:26:28.100Z,98752.98
2023-05-05T05:30:57.737Z,98752.80
2023-05-05T05:35:28.580Z,98751.27
2023-05-05T05:39:54.402Z,98761.40
2023-05-05T05:44:24.241Z,98761.96
2023-05-05T05:48:53.176Z,98761.54
2023-05-05T05:53:26.003Z,98759.84
2023-05-05T05:57:52.042Z,98753.96
2023-05-05T06:02:23.007Z,98749.04
2023-05-05T06:06:57.628Z,98748.99
2023-05-05T06:11:23.486Z,98746.98
2023-05-05T06:15:47.500Z,98741.29
2023-05-05T06:20:12.491Z,98733.61
2023-05-05T06:24:38.079Z,98729.21
2023-05-05T06:29:02.882Z,98725.38
2023-05-05T06:33:27.007Z,98729.40
2023-05-05T06:37:50.994Z,98729.45
2023-05-05T06:42:16.890Z,98720.03
2023-05-05T06:46:50.251Z,98720.05
2023-05-05T06:51:19.930Z,98726.48
2023-05-05T06:55:47.587Z,98725.95
2023-05-05T07:00:11.552Z,98726.83
2023-05-05T07:04:37.622Z,98731.08
2023-05-05T07:09:07.359Z,98728.50
2023-05-05T07:13:31.303Z,98722.61
2023-05-05T07:17:59.635Z,98719.40
2023-05-05T07:22:23.656Z,98714.74
2023-05-05T07:26:49.025Z,98714.58
2023-05-05T07:31:13.126Z,98708.53
2023-05-05T07:35:39.206Z,98710.55
2023-05-05T07:40:03.154Z,98703.99
2023-05-05T07:44:27.229Z,98701.35
2023-05-05T07:48:51.237Z,98700.98
2023-05-05T07:53:16.107Z,98696.23
2023-05-05T07:57:42.728Z,98697.91
2023-05-05T08:02:06.767Z,98697.10
2023-05-05T08:06:36.996Z,98696.15
2023-05-05T08:11:05.316Z,98695.34
2023-05-05T08:15:38.153Z,98695.30
2023-05-05T08:20:07.866Z,98695.61
2023-05-05T08:24:39.560Z,98692.15
2023-05-05T08:29:10.098Z,98691.60
2023-05-05T08:33:42.929Z,98690.49
2023-05-05T08:38:06.767Z,98690.75
2023-05-05T08:42:37.727Z,98690.16
2023-05-05T08:47:05.983Z,98685.38
2023-05-05T08:51:40.421Z,98681.19
2023-05-05T08:56:04.425Z,98674.72
2023-05-05T09:00:35.240Z,98669.17
2023-05-05T09:05:02.340Z,98666.59
2023-05-05T09:09:19.500Z,98662.27
2023-05-05T09:13:46.456Z,98662.38
2023-05-05T09:18:11.082Z,98663.75
2023-05-05T09:22:39.207Z,98664.05
2023-05-05T09:27:08.912Z,98661.23
2023-05-05T09:31:43.444Z,98662.02
2023-05-05T09:36:12.800Z,98659.66
2023-05-05T09:41:13.077Z,98660.54
2023-05-05T09:46:10.395Z,98652.30
2023-05-05T09:50:48.208Z,98642.95
2023-05-05T09:55:34.818Z,98640.89
2023-05-05T10:05:13.634Z,98634.10
2023-05-05T10:09:58.865Z,98624.89
2023-05-05T10:14:22.176Z,98623.24
2023-05-05T10:18:50.191Z,98625.64
2023-05-05T10:23:25.943Z,98616.73
2023-05-05T10:27:30.506Z,98610.10
2023-05-05T10:31:57.641Z,98607.81
2023-05-05T10:36:24.891Z,98605.94
2023-05-05T10:53:12.246Z,98582.48
2023-05-05T10:57:40.728Z,98574.30
2023-05-05T11:02:09.755Z,98569.80
2023-05-05T11:06:48.209Z,98569.23
2023-05-05T11:11:34.130Z,98562.27
2023-05-05T11:16:27.338Z,98555.30
2023-05-05T11:21:17.224Z,98554.36
2023-05-05T11:25:51.908Z,98544.77
2023-05-05T11:30:45.647Z,98540.00
2023-05-05T11:35:50.485Z,98537.94
2023-05-05T11:40:40.764Z,98531.61
2023-05-05T11:45:13.633Z,98528.24
2023-05-05T11:49:36.796Z,98524.33
2023-05-05T11:54:23.606Z,98517.17
2023-05-05T11:58:59.608Z,98518.70
2023-05-05T12:04:03.578Z,98507.27
2023-05-05T12:08:45.713Z,98502.70
2023-05-05T12:13:15.559Z,98508.46
2023-05-05T12:18:02.381Z,98509.36
2023-05-05T12:22:47.453Z,98504.54
2023-05-05T12:27:32.467Z,98501.00
2023-05-05T12:31:58.645Z,98501.31
2023-05-05T12:36:21.879Z,98500.50
2023-05-05T12:40:51.509Z,98499.30
2023-05-05T12:45:15.991Z,98497.50
2023-05-05T12:50:28.285Z,98490.42
2023-05-05T12:55:32.164Z,98485.89
2023-05-05T13:00:37.109Z,98481.22
2023-05-05T13:05:49.903Z,98478.94
2023-05-05T13:10:53.838Z,98475.77
2023-05-05T13:15:26.950Z,98472.70
2023-05-05T13:20:11.785Z,98468.11
2023-05-05T13:24:50.818Z,98463.99
2023-05-05T13:29:16.423Z,98463.70
2023-05-05T13:34:00.187Z,98456.71
2023-05-05T13:38:45.538Z,98446.37
2023-05-05T13:43:50.343Z,98446.30
2023-05-05T13:48:34.828Z,98446.56
2023-05-05T13:52:57.674Z,98443.02
2023-05-05T13:57:22.475Z,98436.78
2023-05-05T14:02:28.454Z,98429.02
2023-05-05T14:07:12.645Z,98427.73
2023-05-05T14:11:56.945Z,98426.57
2023-05-05T14:16:43.411Z,98421.13
2023-05-05T14:21:49.391Z,98420.85
2023-05-05T14:26:59.075Z,98421.05
2023-05-05T14:31:24.624Z,98419.26
2023-05-05T14:35:49.346Z,98415.17
2023-05-05T14:40:13.218Z,98408.20
2023-05-05T14:44:37.301Z,98406.77
2023-05-05T14:49:21.308Z,98415.75
2023-05-05T14:54:14.224Z,98413.02
2023-05-05T14:58:52.223Z,98406.96
2023-05-05T15:03:38.745Z,98407.43
2023-05-05T15:08:25.876Z,98405.98
2023-05-05T15:12:50.657Z,98400.83
2023-05-05T15:17:34.989Z,98404.20
2023-05-05T15:22:00.876Z,98403.95
2023-05-05T15:27:04.845Z,98401.24
2023-05-05T15:31:52.289Z,98399.11
2023-05-05T15:36:20.408Z,98399.92
2023-05-05T15:40:43.639Z,98394.06
2023-05-05T15:45:27.833Z,98398.69
2023-05-05T15:50:13.611Z,98398.94
2023-05-05T15:54:45.799Z,98397.55
2023-05-05T15:59:32.885Z,98396.09
2023-05-05T16:04:16.216Z,98395.75
2023-05-05T16:09:07.949Z,98392.80
2023-05-05T16:13:52.636Z,98395.23
2023-05-05T16:18:18.299Z,98392.90
2023-05-05T16:23:02.534Z,98390.02
2023-05-05T16:27:27.926Z,98383.10
2023-05-05T16:32:13.961Z,98388.89
2023-05-05T16:36:58.956Z,98389.45
2023-05-05T16:41:44.298Z,98393.30
2023-05-05T16:46:09.381Z,98392.38
2023-05-05T16:50:35.574Z,98392.14
2023-05-05T16:55:39.491Z,98392.20
2023-05-05T17:00:04.441Z,98398.45
2023-05-05T17:04:28.424Z,98398.47
2023-05-05T17:08:52.431Z,98397.76
2023-05-05T17:13:16.413Z,98399.61
2023-05-05T17:18:21.231Z,98404.92
2023-05-05T17:23:05.178Z,98407.55
2023-05-05T17:27:29.109Z,98410.80
2023-05-05T17:31:54.428Z,98411.70
2023-05-05T17:37:01.144Z,98412.51
2023-05-05T17:41:33.386Z,98418.91
2023-05-05T17:46:17.791Z,98427.09
2023-05-05T17:51:22.580Z,98430.77
2023-05-05T17:56:27.527Z,98437.05
2023-05-05T18:00:54.147Z,98438.86
2023-05-05T18:05:39.552Z,98441.14
2023-05-05T18:10:32.551Z,98441.59
2023-05-05T18:15:16.655Z,98447.40
2023-05-05T18:20:01.792Z,98450.41
2023-05-05T18:24:47.930Z,98451.71
2023-05-05T18:29:31.239Z,98462.27
2023-05-05T18:33:55.278Z,98467.50
2023-05-05T18:38:43.904Z,98470.96
2023-05-05T18:43:10.005Z,98473.54
2023-05-05T18:47:35.319Z,98470.15
2023-05-05T18:52:19.512Z,98469.69
2023-05-05T18:57:11.500Z,98475.95
2023-05-05T19:01:57.493Z,98474.63
2023-05-05T19:06:21.588Z,98478.13
2023-05-05T19:11:07.790Z,98479.98
2023-05-05T19:15:53.728Z,98479.63
2023-05-05T19:20:40.212Z,98482.71
2023-05-05T19:25:24.612Z,98482.19
2023-05-05T19:30:30.680Z,98485.21
2023-05-05T19:34:59.418Z,98488.88
2023-05-05T19:39:27.237Z,98484.21
2023-05-05T19:43:57.743Z,98483.62
2023-05-05T19:49:03.593Z,98490.82
2023-05-05T19:54:04.141Z,98493.18
2023-05-05T19:58:49.390Z,98490.55
2023-05-05T20:03:35.732Z,98483.23
2023-05-05T20:08:40.461Z,98484.23
2023-05-05T20:13:44.366Z,98480.16
2023-05-05T20:18:50.184Z,98483.23
2023-05-05T20:23:54.094Z,98487.16
2023-05-05T20:28:38.291Z,98485.36
2023-05-05T20:33:06.235Z,98485.42
2023-05-05T20:37:53.239Z,98491.61
2023-05-05T20:42:59.667Z,98491.77
2023-05-05T20:47:43.989Z,98487.08
2023-05-05T20:52:10.001Z,98487.50
2023-05-05T20:56:38.576Z,98485.55
2023-05-05T21:01:11.507Z,98482.61
2023-05-05T21:05:38.750Z,98482.56
2023-05-05T21:10:23.254Z,98477.85
2023-05-05T21:15:07.344Z,98481.85
2023-05-05T21:20:11.336Z,98478.40
2023-05-05T21:25:15.870Z,98480.69
2023-05-05T21:30:19.814Z,98477.30
2023-05-05T21:35:06.111Z,98470.33
2023-05-05T21:39:55.318Z,98463.45
2023-05-05T21:44:26.429Z,98463.19
2023-05-05T21:49:28.383Z,98458.51
2023-05-05T21:54:35.101Z,98460.44
2023-05-05T21:59:40.679Z,98456.70
2023-05-05T22:04:10.824Z,98457.17
2023-05-05T22:08:55.826Z,98456.95
2023-05-05T22:13:41.473Z,98461.40
2023-05-05T22:18:46.356Z,98465.36
2023-05-05T22:23:34.001Z,98472.25
2023-05-05T22:28:00.755Z,98473.73
2023-05-05T22:33:06.696Z,98477.02
2023-05-05T22:37:40.082Z,98470.02
2023-05-05T22:42:38.262Z,98475.51
2023-05-05T22:47:31.456Z,98474.29
2023-05-05T22:52:22.131Z,98476.94
2023-05-05T22:57:09.006Z,98481.64
2023-05-05T23:02:16.781Z,98481.97
2023-05-05T23:07:21.417Z,98481.33
2023-05-05T23:11:52.342Z,98479.06
2023-05-05T23:16:38.528Z,98474.98
2023-05-05T23:21:11.973Z,98476.35
2023-05-05T23:25:38.609Z,98475.52
2023-05-05T23:30:07.494Z,98481.52
2023-05-05T23:34:51.902Z,98473.52
2023-05-05T23:39:36.138Z,98471.27
2023-05-05T23:44:01.155Z,98475.77
2023-05-05T23:48:45.977Z,98476.30
2023-05-05T23:53:13.329Z,98471.48
2023-05-05T23:57:39.380Z,98461.66
